Onde está Aldeia avieira de Barreira da Bica en Portugal?

 

Aldeia avieira de Barreira da Bica está situado na região Santarem em Portugal!

Buscar o nome de uma cidade:

Aldeagallega, Alderholt, Aldeia Multiétnica, Alderberry Hill, Aldeia de Paio Pires

Aqui você vai encontrar a localização de Aldeia avieira de Barreira da Bica em um mapa.
Para ver como ele atualmente parece, abaixo estão algumas fotos da região, com webcams online.
Você também pode encontrar a distância para as principais cidades da região e de cidades do resto do Portugal.

Todos os lugares do mundo chamado .


Onde está Aldeia avieira de Barreira da Bica no mapa?




Webcams perto Aldeia avieira de Barreira da Bica

Benavente › North-East: AIrport, METAR: BENAV 180005Z 36004KT 17/14 Q1015.


Benavente › North-East: AIrport, METAR: BENAV 180005Z 36004KT 17/14 Q1015 - Dia
Actual
Benavente › North-East: AIrport, METAR: BENAV 180005Z 36004KT 17/14 Q1015 - Actual

Abrantes › North-West: › North-West: Zona Alta (Torre).


Abrantes › North-West: › North-West: Zona Alta (Torre) - Dia
Actual
Abrantes › North-West: › North-West: Zona Alta (Torre) - Actual

Abrantes › South-West: Centro Cidade.


Abrantes › South-West: Centro Cidade - Dia
Actual
Abrantes › South-West: Centro Cidade - Actual

Webcams provided by webcams.travel


Distâncias

Onde está Aldeia avieira de Barreira da Bica em relação a outros lugares?

Top 10 cidades em Santarem e distância de Aldeia avieira de Barreira da Bica.

Cidade#Populaçãokmmilhas
Santarém12938585
Entroncamento2198872415
Tomar3191683924
Torres Novas4145262314
Samora Correia5141544528
Abrantes6136464025
Ourém7127293924
Rio Maior8120642717
Fátima9117983723
Almeirim1011556106

Top 10 cidades em Portugal e distância de Aldeia avieira de Barreira da Bica.

Cidade # Populaçãokmmilhas
Lisbon15177987748
Porto2249630206128
Amadora31788568050
Braga4121393251156
Setúbal51171098955
Coimbra610658010364
Queluz71033988050
Funchal8980411049652
Vila Nova de Gaia970810204127
Loures10662307144



Info

Estatística e Geografia

Portugal é composta de 15299 cidades em 20 regiões.

A região de Santarem tem 1174 cidades.

Onde está Aldeia avieira de Barreira da Bica en Portugal?